Miha Mevlja

Olheiro - NK Maribor
4 Abr 2027
Domingo
Processo

Personalidade

Adaptabilidade (7) Ambição (14) Controvérsia (6) Lealdade (11) Pressão (12) Profissionalismo (20) Espírito Esportivo (9) Temperamento (15)

Perfil

Estilo de Treinamento Democrático
Licença Nacional A
Determinação 11
Gestão de Pessoas 7
Motivação 7
Disciplina 10
Satisfação no Trabalho
50%
Fadiga
0%
Função Olheiro
Salário 43.3K p/s
Contrato 14.03.2029

Desempenho

Comportamento Normal
Eficácia do Treinamento
23%
Desenvolvimento do Jogador
55%
Prevenção de Lesões
20%
Implementação Tática
45%

Eventos Recentes

Avaliou um jogador agora
Participou de uma reunião de recrutamento agora
Participou de uma reunião de recrutamento 7d atrás
Votou contra um alvo de transferência 7d atrás
Recomendou um alvo de transferência 7d atrás
Avaliou um jogador 7d atrás
Avaliou um jogador 7d atrás
Avaliou um jogador 14d atrás

Monitorando agora

94
Jogador Clube Status Habilidade Confiança Observado Última observação Último voto
Alejo Fernández Kayserispor Ativo 106 / 89 40% 5 29.03.2027 -
Sabil Hansen Randers Ativo 100 / 102 40% 3 29.03.2027 -
Maxwell Azafokpe Inter Allies Ativo 78 / 83 40% 1 29.03.2027 -
Jakub Adkonis Lechia Ativo 98 / 105 40% 5 27.03.2027 -
Jakub Jendryka Ruch Ativo 86 / 86 40% 2 27.03.2027 -
Konta Ismaily Ativo 96 / 97 40% 2 27.03.2027 -
Surprise Manthosi Polokwane City Ativo 87 / 94 40% 6 23.03.2027 -
Daniel Banjaqui Benfica Ativo 106 / 129 40% 5 23.03.2027 -
Kyrylo Dihtiar Metalist Ativo 97 / 104 40% 1 23.03.2027 -
Abdoulaye Abakar US Moursal Ativo 85 / 81 40% 2 20.03.2027 -
Bohdan Budko AZ Ativo 109 / 111 40% 1 20.03.2027 -
Artem Nosachev Spartak Moscow Ativo 68 / 69 40% 1 20.03.2027 -
Elie N'Gatta Sochaux Ativo 99 / 106 40% 1 18.03.2027 -
Martim Cunha Porto Ativo 100 / 111 40% 1 18.03.2027 -
Davinchi Getafe Ativo 114 / 133 40% 4 13.03.2027 -
Lucan Louw AS Police Ativo 75 / 87 40% 3 13.03.2027 -
Simone Kosijer Triestina Ativo 93 / 110 40% 2 13.03.2027 -
Moncef Zekri Sporting CP Ativo 93 / 111 40% 1 11.03.2027 -
Vinícius Lira Santos Ativo 109 / 122 40% 5 08.03.2027 -
Marius Courcoul Angers SCO Ativo 117 / 114 40% 1 08.03.2027 -
Mpho Khethang AS Police Ativo 80 / 73 40% 1 06.03.2027 -
German Ignatov Rostov Ativo 97 / 96 40% 1 06.03.2027 -
Eduardo Felicíssimo Sporting CP Ativo 104 / 120 40% 1 06.03.2027 -
Alessio Insignito Spezia Ativo 100 / 101 40% 3 04.03.2027 -
Diogo Sousa RC Strasbourg Ativo 116 / 116 40% 4 23.02.2027 -
Fuzy Taylor Medeama Ativo 69 / 94 40% 1 23.02.2027 -
Dmitry Pestryakov Dinamo Moscow Ativo 109 / 124 40% 2 22.02.2027 -
Nikita Kononenko Metallurg Ativo 70 / 87 40% 2 22.02.2027 -
Dimpho Madalane Etoiles du Mande Ativo 88 / 88 40% 2 21.02.2027 -
Leandro Martins Benfica Ativo 97 / 94 40% 2 20.02.2027 -
Tiago Freitas Benfica Ativo 112 / 105 40% 4 17.02.2027 -
Joe Knight Stevenage Ativo 104 / 110 40% 2 16.02.2027 -
Lucas Mbamba Westerlo Ativo 91 / 89 40% 4 14.02.2027 -
Victor Ehibe Real Bamako Ativo 90 / 95 40% 2 14.02.2027 -
Vanja Dragojević Partizan Ativo 117 / 124 40% 1 13.02.2027 -
Simphiwe Selepe Orlando Pirates Ativo 115 / 111 40% 4 12.02.2027 -
Jaygo van Ommeren Utrecht Ativo 101 / 108 40% 2 11.02.2027 -
Gonçalo Oliveira Benfica Ativo 105 / 120 40% 1 10.02.2027 -
Miguel Figueiredo Benfica Ativo 106 / 111 40% 2 06.02.2027 -
Bernardo Lima Porto Ativo 101 / 102 40% 2 06.02.2027 -
Manqoba Mlele AS Police Ativo 79 / 99 40% 1 05.02.2027 -
Salvador Blopá Sporting CP Ativo 115 / 129 40% 2 04.02.2027 -
Jofre Torrents Ajax Ativo 122 / 126 40% 2 22.01.2027 -
Ronan Kpakio Preston Ativo 108 / 116 40% 1 20.01.2027 -
Savely Nikiforov Zenit Ativo 79 / 76 40% 1 15.01.2027 -
Sergey Chernov Zenit Ativo 75 / 77 40% 3 14.01.2027 -
Moses Mphekgoane FC Diarra Ativo 86 / 93 40% 1 13.01.2027 -
Cemran Dansin Orlando Pirates Ativo 119 / 117 40% 1 13.01.2027 -
Alen Korošec ND Gorica Ativo 100 / 107 40% 3 12.01.2027 -
Sabur Ali Rudar Velenje Ativo 84 / 100 40% 3 08.01.2027 -
Nik Omladič Koper Ativo 106 / 101 76% 1 02.01.2027 Aprovar
Dominik Iskrić NK Krka Ativo 86 / 84 40% 2 09.12.2026 -
Maldini Kacurri Grimsby Town Rejeitado 95 / 102 40% 2 07.12.2026 Mais informações
Tilen Kovačić NK Krka Ativo 90 / 95 30% 1 / 1m 18.11.2026 -
Tai Meze NK Krka Ativo 89 / 94 30% 1 / 1m 18.11.2026 -
Agustín Obregón River Plate Ativo 118 / 103 40% 3 17.11.2026 -
Daniel Herrera Cortulua Ativo 103 / 111 40% 2 17.11.2026 -
Lucas Noubi Deportivo La Coruña Ativo 108 / 115 40% 3 10.11.2026 -
Eyad El Askalany Rostov Ativo 96 / 89 40% 1 10.11.2026 -
Rhys Walters Port Vale Ativo 102 / 112 40% 2 09.11.2026 -
Bade Aluko Leicester City Ativo 110 / 114 40% 1 02.11.2026 -
Dajan Durmiši Koper Ativo 87 / 95 40% 1 14.10.2026 -
Juan Pablo De la Reta Maipú Ativo 104 / 111 40% 1 09.10.2026 -
Jure Janza NK Domzale Ativo 91 / 88 40% 1 09.10.2026 -
Lucas Richarte Temperley Ativo 103 / 102 40% 2 08.10.2026 -
Aiden Hezarkhani Real Salt Lake Ativo 83 / 104 40% 1 08.10.2026 -
Milan Smits De Graafschap Ativo 101 / 116 40% 1 07.10.2026 -
Alex Opoku Sarfo Aris Ativo 106 / 130 40% 1 07.10.2026 -
Patrik Veselić NK Krsko Ativo 91 / 83 40% 1 24.09.2026 -
Mauro Carrizo Atlético Tucumán Ativo 84 / 122 40% 1 24.09.2026 -
Nhoa Sangui Paris FC Ativo 117 / 136 40% 1 24.09.2026 -
Pablo Aguiar Gimnasia La Plata Ativo 100 / 98 40% 1 21.09.2026 -
Jan Cedilnik Paide Ativo 78 / 81 40% 1 21.09.2026 -
Siyabonga Mabunda FCSB Ativo 93 / 107 40% 1 20.09.2026 -
Rachid Moumini Sumgayit Ativo 106 / 111 40% 1 18.09.2026 -
Mikel Amondarain Bologna Ativo 120 / 126 40% 1 18.09.2026 -
Kevin Gutiérrez Rosario Central Ativo 92 / 105 40% 1 18.09.2026 -
Chisom Ogbun Warri Wolves Ativo 68 / 77 40% 1 08.09.2026 -
Jonny Russell Crawley Town Ativo 91 / 94 40% 1 08.09.2026 -
Thiago Helguera Braga Ativo 112 / 120 40% 1 06.09.2026 -
Agustín Alvez San Lorenzo Ativo 104 / 110 40% 1 04.09.2026 -
Tyler Fredricson Valladolid Ativo 102 / 104 40% 1 03.09.2026 -
Dovydas Sasnauskas Sheffield United Ativo 87 / 101 40% 1 03.09.2026 -
Guillermo Abregú Atlético Tucumán Ativo 99 / 82 40% 1 03.09.2026 -
Teun Gijselhart Deportivo La Coruña Ativo 101 / 113 40% 1 30.08.2026 -
Kristjan Laščak ND Gorica Ativo 78 / 82 40% 1 29.08.2026 -
Santino Piccinetti Huracán Ativo 105 / 90 40% 1 28.08.2026 -
Lukas Veber NK Celje Ativo 84 / 94 67% 1 22.08.2026 Rejeitar
Santino Bima Huracán Ativo 88 / 110 40% 1 18.08.2026 -
Gonzalo Escudero Racing Club Ativo 109 / 117 40% 1 18.08.2026 -
Gideon Manaseh Ikorodu City Ativo 74 / 77 40% 1 13.08.2026 -
Bruno Sepúlveda Banfield Ativo 123 / 128 40% 1 02.08.2026 -
Kyle Wootton Stockport County Ativo 112 / 117 40% 1 01.08.2026 -
Tashreeq Matthews Mamelodi Sundowns Ativo 111 / 119 40% 1 01.08.2026 -